sensor_id;sensor_type;location;lat;lon;timestamp;pressure;altitude;pressure_sealevel;temperature;humidity
71151;BME280;59071;42.138;24.768;2023-02-14T00:00:04;101113.16;;;5.03;51.36
71151;BME280;59071;42.138;24.768;2023-02-14T00:02:29;101107.25;;;4.80;51.34
71151;BME280;59071;42.138;24.768;2023-02-14T00:04:54;101104.78;;;4.58;52.01
71151;BME280;59071;42.138;24.768;2023-02-14T00:07:20;101109.16;;;4.68;51.81
71151;BME280;59071;42.138;24.768;2023-02-14T00:09:45;101102.53;;;4.84;52.42
71151;BME280;59071;42.138;24.768;2023-02-14T00:12:10;101105.41;;;5.12;51.22
71151;BME280;59071;42.138;24.768;2023-02-14T00:14:35;101087.72;;;5.02;50.05
71151;BME280;59071;42.138;24.768;2023-02-14T00:17:19;101095.69;;;4.72;50.68
71151;BME280;59071;42.138;24.768;2023-02-14T00:19:44;101093.91;;;4.51;50.83
71151;BME280;59071;42.138;24.768;2023-02-14T00:22:10;101103.50;;;4.52;51.34
71151;BME280;59071;42.138;24.768;2023-02-14T00:24:35;101102.44;;;4.64;51.64
71151;BME280;59071;42.138;24.768;2023-02-14T00:27:00;101111.38;;;4.73;50.17
71151;BME280;59071;42.138;24.768;2023-02-14T00:29:27;101105.41;;;4.71;50.72
71151;BME280;59071;42.138;24.768;2023-02-14T00:31:53;101108.94;;;4.91;51.06
71151;BME280;59071;42.138;24.768;2023-02-14T00:34:18;101099.66;;;4.97;49.63
71151;BME280;59071;42.138;24.768;2023-02-14T00:36:44;101103.72;;;5.01;51.40
71151;BME280;59071;42.138;24.768;2023-02-14T00:39:11;101097.34;;;4.42;50.98
71151;BME280;59071;42.138;24.768;2023-02-14T00:41:37;101086.19;;;4.28;51.69
71151;BME280;59071;42.138;24.768;2023-02-14T00:44:02;101094.44;;;4.45;51.39
71151;BME280;59071;42.138;24.768;2023-02-14T00:46:28;101096.19;;;4.35;50.56
71151;BME280;59071;42.138;24.768;2023-02-14T00:48:53;101103.31;;;5.15;50.61
71151;BME280;59071;42.138;24.768;2023-02-14T00:51:19;101100.66;;;5.05;48.99
71151;BME280;59071;42.138;24.768;2023-02-14T00:53:45;101100.94;;;4.72;50.14
71151;BME280;59071;42.138;24.768;2023-02-14T00:56:11;101094.78;;;4.92;49.63
71151;BME280;59071;42.138;24.768;2023-02-14T00:58:36;101105.44;;;4.81;49.67
71151;BME280;59071;42.138;24.768;2023-02-14T01:01:02;101099.88;;;4.53;50.31
71151;BME280;59071;42.138;24.768;2023-02-14T01:03:27;101109.94;;;4.59;50.36
71151;BME280;59071;42.138;24.768;2023-02-14T01:05:52;101102.50;;;4.74;49.35
71151;BME280;59071;42.138;24.768;2023-02-14T01:08:18;101100.97;;;4.81;49.08
71151;BME280;59071;42.138;24.768;2023-02-14T01:10:43;101101.28;;;4.47;50.46
71151;BME280;59071;42.138;24.768;2023-02-14T01:13:09;101092.56;;;4.36;50.07
71151;BME280;59071;42.138;24.768;2023-02-14T01:15:39;101087.16;;;4.58;50.76
71151;BME280;59071;42.138;24.768;2023-02-14T01:18:04;101085.69;;;4.75;49.45
71151;BME280;59071;42.138;24.768;2023-02-14T01:20:29;101083.41;;;4.92;49.44
71151;BME280;59071;42.138;24.768;2023-02-14T01:22:55;101079.75;;;4.83;49.28
71151;BME280;59071;42.138;24.768;2023-02-14T01:25:20;101075.78;;;4.58;49.09
71151;BME280;59071;42.138;24.768;2023-02-14T01:27:45;101072.47;;;4.65;49.32
71151;BME280;59071;42.138;24.768;2023-02-14T01:30:11;101067.06;;;4.36;49.93
71151;BME280;59071;42.138;24.768;2023-02-14T01:32:36;101071.53;;;4.66;49.95
71151;BME280;59071;42.138;24.768;2023-02-14T01:35:02;101070.69;;;4.76;49.22
71151;BME280;59071;42.138;24.768;2023-02-14T01:37:28;101076.56;;;4.89;48.99
71151;BME280;59071;42.138;24.768;2023-02-14T01:39:54;101070.78;;;4.64;49.90
71151;BME280;59071;42.138;24.768;2023-02-14T01:42:19;101077.16;;;4.31;50.22
71151;BME280;59071;42.138;24.768;2023-02-14T01:47:09;101082.66;;;4.49;51.61
71151;BME280;59071;42.138;24.768;2023-02-14T01:49:46;101071.91;;;4.62;51.49
71151;BME280;59071;42.138;24.768;2023-02-14T01:52:14;101070.84;;;4.74;50.93
71151;BME280;59071;42.138;24.768;2023-02-14T01:54:43;101075.19;;;4.85;50.42
71151;BME280;59071;42.138;24.768;2023-02-14T01:57:11;101072.97;;;4.80;49.59
71151;BME280;59071;42.138;24.768;2023-02-14T01:59:41;101059.09;;;4.47;50.51
71151;BME280;59071;42.138;24.768;2023-02-14T02:02:07;101052.66;;;4.71;50.43
71151;BME280;59071;42.138;24.768;2023-02-14T02:04:34;101050.88;;;4.81;49.48
71151;BME280;59071;42.138;24.768;2023-02-14T02:07:02;101052.63;;;4.61;50.53
71151;BME280;59071;42.138;24.768;2023-02-14T02:09:39;101043.69;;;4.22;50.69
71151;BME280;59071;42.138;24.768;2023-02-14T02:12:08;101028.38;;;4.37;50.52
71151;BME280;59071;42.138;24.768;2023-02-14T02:14:34;101033.88;;;4.64;50.20
71151;BME280;59071;42.138;24.768;2023-02-14T02:48:23;101030.44;;;4.33;50.64
71151;BME280;59071;42.138;24.768;2023-02-14T02:50:52;101033.00;;;4.54;52.68
71151;BME280;59071;42.138;24.768;2023-02-14T02:56:17;101034.81;;;4.23;50.79
71151;BME280;59071;42.138;24.768;2023-02-14T02:59:08;101023.97;;;4.16;50.56
71151;BME280;59071;42.138;24.768;2023-02-14T03:01:42;101019.38;;;4.49;50.46
71151;BME280;59071;42.138;24.768;2023-02-14T03:04:09;101010.81;;;4.57;49.76
71151;BME280;59071;42.138;24.768;2023-02-14T03:06:54;101020.53;;;5.06;50.22
71151;BME280;59071;42.138;24.768;2023-02-14T03:11:51;101000.75;;;4.81;50.54
71151;BME280;59071;42.138;24.768;2023-02-14T03:14:25;100992.28;;;4.37;49.82
71151;BME280;59071;42.138;24.768;2023-02-14T03:17:10;100999.16;;;4.49;50.22
71151;BME280;59071;42.138;24.768;2023-02-14T03:20:25;100994.38;;;4.43;50.43
71151;BME280;59071;42.138;24.768;2023-02-14T03:27:57;100987.63;;;4.50;50.91
71151;BME280;59071;42.138;24.768;2023-02-14T03:30:33;100976.59;;;4.36;49.97
71151;BME280;59071;42.138;24.768;2023-02-14T03:33:03;100982.84;;;4.35;49.96
71151;BME280;59071;42.138;24.768;2023-02-14T03:41:00;100976.88;;;4.33;50.54
71151;BME280;59071;42.138;24.768;2023-02-14T03:43:48;100992.22;;;4.18;51.53
71151;BME280;59071;42.138;24.768;2023-02-14T03:46:15;100990.75;;;4.04;52.10
71151;BME280;59071;42.138;24.768;2023-02-14T03:48:42;100978.72;;;4.11;51.80
71151;BME280;59071;42.138;24.768;2023-02-14T03:51:09;100981.59;;;3.98;51.28
71151;BME280;59071;42.138;24.768;2023-02-14T03:53:37;100982.06;;;4.13;52.61
71151;BME280;59071;42.138;24.768;2023-02-14T03:56:07;100990.22;;;4.41;50.44
71151;BME280;59071;42.138;24.768;2023-02-14T03:58:36;101001.31;;;4.35;50.61
71151;BME280;59071;42.138;24.768;2023-02-14T04:01:07;100994.03;;;4.17;50.47
71151;BME280;59071;42.138;24.768;2023-02-14T04:03:34;100991.50;;;4.46;49.97
71151;BME280;59071;42.138;24.768;2023-02-14T04:06:03;100992.50;;;4.24;50.30
71151;BME280;59071;42.138;24.768;2023-02-14T04:08:28;100989.44;;;4.19;51.16
71151;BME280;59071;42.138;24.768;2023-02-14T04:10:55;100980.22;;;4.35;50.45
71151;BME280;59071;42.138;24.768;2023-02-14T04:13:21;100970.59;;;4.24;50.48
71151;BME280;59071;42.138;24.768;2023-02-14T04:15:46;100970.69;;;4.53;49.81
71151;BME280;59071;42.138;24.768;2023-02-14T04:18:12;100971.59;;;4.23;50.09
71151;BME280;59071;42.138;24.768;2023-02-14T04:20:56;100969.84;;;4.12;50.21
71151;BME280;59071;42.138;24.768;2023-02-14T04:23:21;100962.41;;;4.17;51.99
71151;BME280;59071;42.138;24.768;2023-02-14T04:25:46;100956.41;;;4.46;49.73
71151;BME280;59071;42.138;24.768;2023-02-14T04:28:12;100955.88;;;4.62;50.90
71151;BME280;59071;42.138;24.768;2023-02-14T04:30:37;100958.59;;;4.41;49.92
71151;BME280;59071;42.138;24.768;2023-02-14T04:33:03;100956.41;;;4.46;49.86
71151;BME280;59071;42.138;24.768;2023-02-14T04:35:28;100955.06;;;4.61;51.33
71151;BME280;59071;42.138;24.768;2023-02-14T04:37:54;100947.25;;;4.50;50.36
71151;BME280;59071;42.138;24.768;2023-02-14T04:40:19;100940.88;;;4.53;49.95
71151;BME280;59071;42.138;24.768;2023-02-14T04:42:45;100940.03;;;4.52;49.63
71151;BME280;59071;42.138;24.768;2023-02-14T04:45:10;100939.47;;;4.48;50.50
71151;BME280;59071;42.138;24.768;2023-02-14T04:47:35;100942.25;;;4.57;50.68
71151;BME280;59071;42.138;24.768;2023-02-14T04:50:01;100932.50;;;4.38;49.67
71151;BME280;59071;42.138;24.768;2023-02-14T04:52:26;100929.06;;;4.47;50.21
71151;BME280;59071;42.138;24.768;2023-02-14T04:54:51;100929.34;;;4.44;49.36
71151;BME280;59071;42.138;24.768;2023-02-14T04:57:17;100934.78;;;4.62;48.75
71151;BME280;59071;42.138;24.768;2023-02-14T04:59:42;100928.47;;;5.03;48.36
71151;BME280;59071;42.138;24.768;2023-02-14T05:02:07;100932.22;;;5.20;47.22
71151;BME280;59071;42.138;24.768;2023-02-14T05:04:33;100922.91;;;5.16;47.39
71151;BME280;59071;42.138;24.768;2023-02-14T05:06:58;100910.41;;;5.08;47.03
71151;BME280;59071;42.138;24.768;2023-02-14T05:09:23;100905.66;;;4.83;47.64
71151;BME280;59071;42.138;24.768;2023-02-14T05:11:48;100900.69;;;4.89;47.49
71151;BME280;59071;42.138;24.768;2023-02-14T05:14:14;100896.94;;;4.73;47.99
71151;BME280;59071;42.138;24.768;2023-02-14T05:16:39;100902.19;;;4.73;47.96
71151;BME280;59071;42.138;24.768;2023-02-14T05:19:04;100913.16;;;4.68;47.99
71151;BME280;59071;42.138;24.768;2023-02-14T05:21:29;100906.22;;;4.57;48.42
71151;BME280;59071;42.138;24.768;2023-02-14T05:23:57;100907.22;;;5.15;49.46
71151;BME280;59071;42.138;24.768;2023-02-14T05:26:22;100908.31;;;5.98;50.67
71151;BME280;59071;42.138;24.768;2023-02-14T05:28:48;100927.38;;;6.57;51.49
71151;BME280;59071;42.138;24.768;2023-02-14T05:31:13;100932.84;;;6.92;52.59
71151;BME280;59071;42.138;24.768;2023-02-14T05:33:38;100930.59;;;8.11;48.32
71151;BME280;59071;42.138;24.768;2023-02-14T05:36:04;100916.25;;;7.43;46.13
71151;BME280;59071;42.138;24.768;2023-02-14T05:38:29;100916.81;;;7.55;45.23
71151;BME280;59071;42.138;24.768;2023-02-14T05:40:55;100922.56;;;7.07;43.42
71151;BME280;59071;42.138;24.768;2023-02-14T05:43:20;100922.09;;;6.30;45.08
71151;BME280;59071;42.138;24.768;2023-02-14T05:45:46;100924.53;;;6.41;44.72
71151;BME280;59071;42.138;24.768;2023-02-14T05:48:12;100911.34;;;6.03;46.01
71151;BME280;59071;42.138;24.768;2023-02-14T05:50:37;100913.03;;;6.04;45.89
71151;BME280;59071;42.138;24.768;2023-02-14T05:53:02;100908.47;;;5.87;45.87
71151;BME280;59071;42.138;24.768;2023-02-14T05:55:29;100907.00;;;6.12;45.72
71151;BME280;59071;42.138;24.768;2023-02-14T05:57:54;100898.78;;;6.43;45.98
71151;BME280;59071;42.138;24.768;2023-02-14T06:00:19;100888.56;;;6.02;46.23
71151;BME280;59071;42.138;24.768;2023-02-14T06:02:45;100893.69;;;6.04;46.83
71151;BME280;59071;42.138;24.768;2023-02-14T06:05:10;100899.44;;;6.45;44.89
71151;BME280;59071;42.138;24.768;2023-02-14T06:07:35;100904.13;;;6.97;44.54
71151;BME280;59071;42.138;24.768;2023-02-14T06:10:01;100895.03;;;6.63;44.72
71151;BME280;59071;42.138;24.768;2023-02-14T06:12:26;100901.19;;;6.82;45.34
71151;BME280;59071;42.138;24.768;2023-02-14T06:14:51;100905.09;;;6.78;43.74
71151;BME280;59071;42.138;24.768;2023-02-14T06:17:17;100907.97;;;7.02;43.80
71151;BME280;59071;42.138;24.768;2023-02-14T06:19:42;100902.38;;;6.88;44.04
71151;BME280;59071;42.138;24.768;2023-02-14T06:22:07;100902.66;;;7.02;43.63
71151;BME280;59071;42.138;24.768;2023-02-14T06:24:33;100894.34;;;7.33;43.58
71151;BME280;59071;42.138;24.768;2023-02-14T06:26:58;100902.69;;;7.73;42.15
71151;BME280;59071;42.138;24.768;2023-02-14T06:29:23;100893.41;;;7.42;42.46
71151;BME280;59071;42.138;24.768;2023-02-14T06:31:49;100890.25;;;7.39;42.72
71151;BME280;59071;42.138;24.768;2023-02-14T06:34:14;100892.19;;;7.63;42.28
71151;BME280;59071;42.138;24.768;2023-02-14T06:36:39;100892.16;;;8.15;41.01
71151;BME280;59071;42.138;24.768;2023-02-14T06:39:05;100898.50;;;8.31;40.69
71151;BME280;59071;42.138;24.768;2023-02-14T06:41:30;100887.78;;;7.72;41.34
71151;BME280;59071;42.138;24.768;2023-02-14T06:43:55;100894.06;;;7.97;41.75
71151;BME280;59071;42.138;24.768;2023-02-14T06:46:21;100899.84;;;8.86;39.84
71151;BME280;59071;42.138;24.768;2023-02-14T06:48:46;100907.66;;;8.95;39.90
71151;BME280;59071;42.138;24.768;2023-02-14T06:51:11;100908.00;;;9.09;39.05
71151;BME280;59071;42.138;24.768;2023-02-14T06:53:37;100904.66;;;9.07;39.45
71151;BME280;59071;42.138;24.768;2023-02-14T06:56:03;100902.50;;;9.02;39.39
71151;BME280;59071;42.138;24.768;2023-02-14T06:58:28;100898.66;;;8.88;39.93
71151;BME280;59071;42.138;24.768;2023-02-14T07:00:54;100905.34;;;9.33;39.23
71151;BME280;59071;42.138;24.768;2023-02-14T07:03:20;100904.66;;;9.15;38.89
71151;BME280;59071;42.138;24.768;2023-02-14T07:05:45;100889.66;;;9.71;38.50
71151;BME280;59071;42.138;24.768;2023-02-14T07:08:11;100899.44;;;9.71;38.62
71151;BME280;59071;42.138;24.768;2023-02-14T07:10:36;100897.19;;;9.43;38.55
71151;BME280;59071;42.138;24.768;2023-02-14T07:13:01;100906.03;;;10.00;37.70
71151;BME280;59071;42.138;24.768;2023-02-14T07:15:27;100899.53;;;10.02;37.28
71151;BME280;59071;42.138;24.768;2023-02-14T07:17:52;100898.66;;;10.18;37.08
71151;BME280;59071;42.138;24.768;2023-02-14T07:20:18;100901.63;;;10.23;36.91
71151;BME280;59071;42.138;24.768;2023-02-14T07:22:43;100900.00;;;11.61;35.55
71151;BME280;59071;42.138;24.768;2023-02-14T07:25:09;100900.31;;;11.28;35.45
71151;BME280;59071;42.138;24.768;2023-02-14T07:27:34;100909.78;;;11.30;35.37
71151;BME280;59071;42.138;24.768;2023-02-14T07:29:59;100892.22;;;11.89;35.47
71151;BME280;59071;42.138;24.768;2023-02-14T07:32:25;100889.16;;;11.62;34.82
71151;BME280;59071;42.138;24.768;2023-02-14T07:34:50;100896.31;;;11.47;35.10
71151;BME280;59071;42.138;24.768;2023-02-14T07:37:15;100884.53;;;10.57;36.55
71151;BME280;59071;42.138;24.768;2023-02-14T07:39:42;100878.28;;;11.34;35.50
71151;BME280;59071;42.138;24.768;2023-02-14T07:42:07;100880.03;;;10.81;36.11
71151;BME280;59071;42.138;24.768;2023-02-14T07:44:32;100889.09;;;11.18;36.67
71151;BME280;59071;42.138;24.768;2023-02-14T07:46:58;100886.16;;;10.89;36.90
71151;BME280;59071;42.138;24.768;2023-02-14T07:49:23;100882.50;;;12.11;35.33
71151;BME280;59071;42.138;24.768;2023-02-14T07:51:48;100886.63;;;12.65;34.29
71151;BME280;59071;42.138;24.768;2023-02-14T07:54:14;100881.69;;;11.96;34.97
71151;BME280;59071;42.138;24.768;2023-02-14T07:56:39;100873.28;;;12.13;35.18
71151;BME280;59071;42.138;24.768;2023-02-14T07:59:04;100876.72;;;12.44;34.12
71151;BME280;59071;42.138;24.768;2023-02-14T08:01:29;100869.75;;;12.28;34.38
71151;BME280;59071;42.138;24.768;2023-02-14T08:03:55;100873.00;;;12.08;34.48
71151;BME280;59071;42.138;24.768;2023-02-14T08:06:20;100879.72;;;12.04;34.91
71151;BME280;59071;42.138;24.768;2023-02-14T08:08:46;100880.25;;;12.29;34.56
71151;BME280;59071;42.138;24.768;2023-02-14T08:11:12;100884.13;;;12.27;34.81
71151;BME280;59071;42.138;24.768;2023-02-14T08:13:57;100871.69;;;12.34;34.58
71151;BME280;59071;42.138;24.768;2023-02-14T08:16:23;100884.28;;;12.40;34.07
71151;BME280;59071;42.138;24.768;2023-02-14T08:18:48;100893.34;;;12.24;34.09
71151;BME280;59071;42.138;24.768;2023-02-14T08:21:13;100900.28;;;12.98;33.68
71151;BME280;59071;42.138;24.768;2023-02-14T08:23:41;100903.94;;;13.97;32.33
71151;BME280;59071;42.138;24.768;2023-02-14T08:26:06;100899.75;;;13.81;32.02
71151;BME280;59071;42.138;24.768;2023-02-14T08:28:31;100914.97;;;14.57;31.90
71151;BME280;59071;42.138;24.768;2023-02-14T08:30:57;100904.78;;;13.19;33.31
71151;BME280;59071;42.138;24.768;2023-02-14T08:33:22;100903.88;;;12.47;34.25
71151;BME280;59071;42.138;24.768;2023-02-14T08:35:47;100906.91;;;12.44;34.40
71151;BME280;59071;42.138;24.768;2023-02-14T08:38:13;100918.81;;;13.43;33.21
71151;BME280;59071;42.138;24.768;2023-02-14T08:40:38;100912.38;;;12.06;35.41
71151;BME280;59071;42.138;24.768;2023-02-14T08:43:04;100915.88;;;12.73;34.65
71151;BME280;59071;42.138;24.768;2023-02-14T08:45:30;100914.88;;;12.96;33.71
71151;BME280;59071;42.138;24.768;2023-02-14T08:47:59;100915.63;;;13.11;33.64
71151;BME280;59071;42.138;24.768;2023-02-14T08:50:24;100912.19;;;12.23;34.53
71151;BME280;59071;42.138;24.768;2023-02-14T08:52:49;100914.81;;;13.10;34.42
71151;BME280;59071;42.138;24.768;2023-02-14T08:55:15;100905.06;;;13.03;34.33
71151;BME280;59071;42.138;24.768;2023-02-14T08:57:40;100893.91;;;12.56;35.04
71151;BME280;59071;42.138;24.768;2023-02-14T09:00:06;100892.50;;;12.97;34.37
71151;BME280;59071;42.138;24.768;2023-02-14T09:02:31;100896.72;;;12.69;34.47
71151;BME280;59071;42.138;24.768;2023-02-14T09:04:57;100894.31;;;12.38;34.68
71151;BME280;59071;42.138;24.768;2023-02-14T09:07:22;100880.19;;;12.59;34.23
71151;BME280;59071;42.138;24.768;2023-02-14T09:09:47;100880.88;;;13.11;34.19
71151;BME280;59071;42.138;24.768;2023-02-14T09:12:12;100863.91;;;12.54;34.24
71151;BME280;59071;42.138;24.768;2023-02-14T09:14:39;100867.78;;;12.51;34.14
71151;BME280;59071;42.138;24.768;2023-02-14T09:17:05;100863.91;;;12.54;34.85
71151;BME280;59071;42.138;24.768;2023-02-14T09:19:31;100859.00;;;12.79;34.34
71151;BME280;59071;42.138;24.768;2023-02-14T09:21:56;100850.88;;;12.29;34.59
71151;BME280;59071;42.138;24.768;2023-02-14T09:24:22;100852.78;;;11.69;36.33
71151;BME280;59071;42.138;24.768;2023-02-14T09:26:47;100863.59;;;12.27;35.48
71151;BME280;59071;42.138;24.768;2023-02-14T09:29:12;100853.53;;;12.44;34.98
71151;BME280;59071;42.138;24.768;2023-02-14T09:31:39;100851.25;;;11.90;35.97
71151;BME280;59071;42.138;24.768;2023-02-14T09:34:05;100809.72;;;12.02;35.72
71151;BME280;59071;42.138;24.768;2023-02-14T09:36:30;100845.19;;;12.54;34.92
71151;BME280;59071;42.138;24.768;2023-02-14T09:39:14;100846.50;;;12.07;36.11
71151;BME280;59071;42.138;24.768;2023-02-14T09:46:49;100834.50;;;12.32;34.44
71151;BME280;59071;42.138;24.768;2023-02-14T09:49:16;100842.34;;;12.56;35.19
71151;BME280;59071;42.138;24.768;2023-02-14T09:51:45;100836.38;;;12.97;34.49
71151;BME280;59071;42.138;24.768;2023-02-14T09:54:12;100829.31;;;12.09;35.33
71151;BME280;59071;42.138;24.768;2023-02-14T09:56:48;100819.00;;;12.06;35.67
71151;BME280;59071;42.138;24.768;2023-02-14T09:59:16;100811.84;;;12.43;35.17
71151;BME280;59071;42.138;24.768;2023-02-14T10:01:56;100806.31;;;12.66;34.84
71151;BME280;59071;42.138;24.768;2023-02-14T10:04:46;100816.19;;;12.94;34.69
71151;BME280;59071;42.138;24.768;2023-02-14T10:07:55;100813.28;;;12.89;34.08
71151;BME280;59071;42.138;24.768;2023-02-14T10:10:56;100809.22;;;12.28;34.62
71151;BME280;59071;42.138;24.768;2023-02-14T10:13:18;100802.56;;;12.61;34.78
71151;BME280;59071;42.138;24.768;2023-02-14T10:15:48;100799.69;;;12.84;34.68
71151;BME280;59071;42.138;24.768;2023-02-14T10:20:43;100795.03;;;12.71;34.25
71151;BME280;59071;42.138;24.768;2023-02-14T10:23:29;100743.41;;;13.14;33.41
71151;BME280;59071;42.138;24.768;2023-02-14T10:25:59;100774.56;;;12.35;34.80
71151;BME280;59071;42.138;24.768;2023-02-14T10:28:32;100785.09;;;12.00;35.73
71151;BME280;59071;42.138;24.768;2023-02-14T10:31:12;100796.56;;;12.01;35.93
71151;BME280;59071;42.138;24.768;2023-02-14T10:33:41;100792.00;;;12.74;34.83
71151;BME280;59071;42.138;24.768;2023-02-14T10:36:14;100781.28;;;12.96;34.54
71151;BME280;59071;42.138;24.768;2023-02-14T10:46:39;100762.63;;;13.30;33.06
71151;BME280;59071;42.138;24.768;2023-02-14T10:54:20;100761.53;;;13.25;33.44
71151;BME280;59071;42.138;24.768;2023-02-14T11:01:52;100747.16;;;13.26;33.70
71151;BME280;59071;42.138;24.768;2023-02-14T11:04:18;100743.28;;;12.72;34.11
71151;BME280;59071;42.138;24.768;2023-02-14T11:06:44;100739.56;;;12.23;34.99
71151;BME280;59071;42.138;24.768;2023-02-14T11:09:13;100750.22;;;13.23;33.64
71151;BME280;59071;42.138;24.768;2023-02-14T11:11:46;100744.59;;;13.11;33.47
71151;BME280;59071;42.138;24.768;2023-02-14T11:14:25;100732.09;;;12.62;34.47
71151;BME280;59071;42.138;24.768;2023-02-14T11:16:52;100725.38;;;12.94;34.25
71151;BME280;59071;42.138;24.768;2023-02-14T11:21:47;100713.41;;;12.90;34.27
71151;BME280;59071;42.138;24.768;2023-02-14T11:24:29;100720.13;;;12.51;34.96
71151;BME280;59071;42.138;24.768;2023-02-14T11:26:56;100716.72;;;12.92;33.94
71151;BME280;59071;42.138;24.768;2023-02-14T11:29:27;100718.66;;;12.77;34.95
71151;BME280;59071;42.138;24.768;2023-02-14T11:31:53;100715.72;;;12.65;35.16
71151;BME280;59071;42.138;24.768;2023-02-14T11:34:32;100717.25;;;13.09;34.44
71151;BME280;59071;42.138;24.768;2023-02-14T11:37:00;100729.69;;;12.95;35.02
71151;BME280;59071;42.138;24.768;2023-02-14T11:39:27;100722.38;;;12.76;35.28
71151;BME280;59071;42.138;24.768;2023-02-14T11:41:54;100722.78;;;13.07;35.12
71151;BME280;59071;42.138;24.768;2023-02-14T11:44:21;100709.78;;;12.69;35.39
71151;BME280;59071;42.138;24.768;2023-02-14T11:46:47;100709.69;;;12.84;34.86
71151;BME280;59071;42.138;24.768;2023-02-14T11:49:34;100703.44;;;12.70;35.28
71151;BME280;59071;42.138;24.768;2023-02-14T11:52:00;100718.03;;;13.79;33.63
71151;BME280;59071;42.138;24.768;2023-02-14T11:54:34;100680.38;;;12.98;34.31
71151;BME280;59071;42.138;24.768;2023-02-14T11:57:01;100702.88;;;13.10;34.77
71151;BME280;59071;42.138;24.768;2023-02-14T11:59:31;100694.31;;;13.28;35.06
71151;BME280;59071;42.138;24.768;2023-02-14T12:02:00;100693.66;;;12.56;35.66
71151;BME280;59071;42.138;24.768;2023-02-14T12:04:33;100693.44;;;12.08;36.14
71151;BME280;59071;42.138;24.768;2023-02-14T12:07:18;100692.66;;;12.14;36.63
71151;BME280;59071;42.138;24.768;2023-02-14T12:09:46;100679.72;;;12.32;36.35
71151;BME280;59071;42.138;24.768;2023-02-14T12:12:29;100679.81;;;12.03;36.65
71151;BME280;59071;42.138;24.768;2023-02-14T12:15:06;100681.16;;;12.13;36.56
71151;BME280;59071;42.138;24.768;2023-02-14T12:17:36;100683.81;;;12.35;35.76
71151;BME280;59071;42.138;24.768;2023-02-14T12:22:30;100667.56;;;12.08;35.53
71151;BME280;59071;42.138;24.768;2023-02-14T12:30:16;100681.56;;;12.32;34.71
71151;BME280;59071;42.138;24.768;2023-02-14T12:32:49;100672.66;;;12.25;35.18
71151;BME280;59071;42.138;24.768;2023-02-14T12:35:15;100663.56;;;12.69;34.84
71151;BME280;59071;42.138;24.768;2023-02-14T12:37:48;100674.13;;;12.56;35.20
71151;BME280;59071;42.138;24.768;2023-02-14T12:48:27;100670.84;;;11.52;36.71
71151;BME280;59071;42.138;24.768;2023-02-14T12:53:29;100663.44;;;12.06;36.49
71151;BME280;59071;42.138;24.768;2023-02-14T12:58:52;100662.69;;;11.39;37.45
71151;BME280;59071;42.138;24.768;2023-02-14T13:01:43;100651.44;;;11.59;37.37
71151;BME280;59071;42.138;24.768;2023-02-14T13:06:37;100657.53;;;11.38;37.75
71151;BME280;59071;42.138;24.768;2023-02-14T13:19:56;100671.91;;;11.73;36.94
71151;BME280;59071;42.138;24.768;2023-02-14T13:22:24;100671.19;;;12.01;36.81
71151;BME280;59071;42.138;24.768;2023-02-14T13:24:52;100664.41;;;11.98;37.15
71151;BME280;59071;42.138;24.768;2023-02-14T13:27:20;100662.53;;;12.20;36.50
71151;BME280;59071;42.138;24.768;2023-02-14T13:29:50;100669.91;;;12.18;36.33
71151;BME280;59071;42.138;24.768;2023-02-14T13:32:20;100667.25;;;12.18;35.99
71151;BME280;59071;42.138;24.768;2023-02-14T13:34:47;100680.53;;;11.75;36.83
71151;BME280;59071;42.138;24.768;2023-02-14T13:37:13;100678.69;;;11.39;37.02
71151;BME280;59071;42.138;24.768;2023-02-14T13:40:26;100676.81;;;11.54;37.48
71151;BME280;59071;42.138;24.768;2023-02-14T13:50:33;100686.78;;;11.16;38.11
71151;BME280;59071;42.138;24.768;2023-02-14T13:53:01;100689.63;;;11.00;39.05
71151;BME280;59071;42.138;24.768;2023-02-14T13:55:30;100691.44;;;10.69;39.92
71151;BME280;59071;42.138;24.768;2023-02-14T14:00:40;100694.03;;;10.40;39.89
71151;BME280;59071;42.138;24.768;2023-02-14T14:03:06;100704.84;;;10.15;40.65
71151;BME280;59071;42.138;24.768;2023-02-14T14:10:53;100717.13;;;9.62;42.03
71151;BME280;59071;42.138;24.768;2023-02-14T14:16:18;100709.53;;;9.50;41.67
71151;BME280;59071;42.138;24.768;2023-02-14T14:19:09;100713.94;;;9.18;42.59
71151;BME280;59071;42.138;24.768;2023-02-14T14:22:01;100723.72;;;9.66;41.71
71151;BME280;59071;42.138;24.768;2023-02-14T14:24:28;100702.09;;;9.77;41.72
71151;BME280;59071;42.138;24.768;2023-02-14T14:26:58;100708.16;;;9.54;42.23
71151;BME280;59071;42.138;24.768;2023-02-14T14:29:26;100715.19;;;8.91;42.86
71151;BME280;59071;42.138;24.768;2023-02-14T14:31:52;100705.94;;;9.27;42.76
71151;BME280;59071;42.138;24.768;2023-02-14T14:34:21;100710.34;;;9.51;42.07
71151;BME280;59071;42.138;24.768;2023-02-14T14:36:48;100710.94;;;9.69;41.93
71151;BME280;59071;42.138;24.768;2023-02-14T14:39:23;100720.31;;;9.88;42.01
71151;BME280;59071;42.138;24.768;2023-02-14T14:41:49;100714.56;;;9.68;41.70
71151;BME280;59071;42.138;24.768;2023-02-14T14:44:14;100699.47;;;9.21;42.65
71151;BME280;59071;42.138;24.768;2023-02-14T14:46:40;100708.19;;;8.90;43.53
71151;BME280;59071;42.138;24.768;2023-02-14T14:49:05;100710.47;;;9.18;42.91
71151;BME280;59071;42.138;24.768;2023-02-14T14:51:35;100709.22;;;8.73;44.00
71151;BME280;59071;42.138;24.768;2023-02-14T14:54:13;100696.94;;;8.31;45.00
71151;BME280;59071;42.138;24.768;2023-02-14T14:56:45;100707.91;;;8.36;45.25
71151;BME280;59071;42.138;24.768;2023-02-14T14:59:30;100717.84;;;8.58;44.85
71151;BME280;59071;42.138;24.768;2023-02-14T15:01:58;100712.22;;;8.45;45.20